sensor_id;sensor_type;location;lat;lon;timestamp;temperature;humidity
48836;DHT22;62581;47.342;7.908;2023-12-20T00:00:21;3.10;99.90
48836;DHT22;62581;47.342;7.908;2023-12-20T00:02:48;3.10;99.90
48836;DHT22;62581;47.342;7.908;2023-12-20T00:05:15;3.10;99.90
48836;DHT22;62581;47.342;7.908;2023-12-20T00:07:42;3.10;99.90
48836;DHT22;62581;47.342;7.908;2023-12-20T00:10:09;3.10;99.90
48836;DHT22;62581;47.342;7.908;2023-12-20T00:12:38;3.10;99.90
48836;DHT22;62581;47.342;7.908;2023-12-20T00:15:08;3.20;99.90
48836;DHT22;62581;47.342;7.908;2023-12-20T00:17:35;3.10;99.90
48836;DHT22;62581;47.342;7.908;2023-12-20T00:20:02;3.10;99.90
48836;DHT22;62581;47.342;7.908;2023-12-20T00:22:29;3.10;99.90
48836;DHT22;62581;47.342;7.908;2023-12-20T00:24:56;3.20;99.90
48836;DHT22;62581;47.342;7.908;2023-12-20T00:27:23;3.10;99.90
48836;DHT22;62581;47.342;7.908;2023-12-20T00:29:49;3.10;99.90
48836;DHT22;62581;47.342;7.908;2023-12-20T00:32:18;3.10;99.90
48836;DHT22;62581;47.342;7.908;2023-12-20T00:34:45;3.10;99.90
48836;DHT22;62581;47.342;7.908;2023-12-20T00:37:12;3.10;99.90
48836;DHT22;62581;47.342;7.908;2023-12-20T00:39:39;3.10;99.90
48836;DHT22;62581;47.342;7.908;2023-12-20T00:42:05;3.10;99.90
48836;DHT22;62581;47.342;7.908;2023-12-20T00:44:32;3.10;99.90
48836;DHT22;62581;47.342;7.908;2023-12-20T00:46:59;3.20;99.90
48836;DHT22;62581;47.342;7.908;2023-12-20T00:49:28;3.10;99.90
48836;DHT22;62581;47.342;7.908;2023-12-20T00:51:55;3.10;99.90
48836;DHT22;62581;47.342;7.908;2023-12-20T00:54:22;3.00;99.90
48836;DHT22;62581;47.342;7.908;2023-12-20T00:56:49;3.00;99.90
48836;DHT22;62581;47.342;7.908;2023-12-20T00:59:16;3.10;99.90
48836;DHT22;62581;47.342;7.908;2023-12-20T01:01:44;3.20;99.90
48836;DHT22;62581;47.342;7.908;2023-12-20T01:04:11;3.20;99.90
48836;DHT22;62581;47.342;7.908;2023-12-20T01:06:39;3.20;99.90
48836;DHT22;62581;47.342;7.908;2023-12-20T01:09:06;3.30;99.90
48836;DHT22;62581;47.342;7.908;2023-12-20T01:11:33;3.20;99.90
48836;DHT22;62581;47.342;7.908;2023-12-20T01:14:00;3.20;99.90
48836;DHT22;62581;47.342;7.908;2023-12-20T01:16:27;3.20;99.90
48836;DHT22;62581;47.342;7.908;2023-12-20T01:18:54;3.20;99.90
48836;DHT22;62581;47.342;7.908;2023-12-20T01:21:21;3.20;99.90
48836;DHT22;62581;47.342;7.908;2023-12-20T01:23:49;3.20;99.90
48836;DHT22;62581;47.342;7.908;2023-12-20T01:26:16;3.20;99.90
48836;DHT22;62581;47.342;7.908;2023-12-20T01:28:43;3.20;99.90
48836;DHT22;62581;47.342;7.908;2023-12-20T01:31:10;3.20;99.90
48836;DHT22;62581;47.342;7.908;2023-12-20T01:33:37;3.30;99.90
48836;DHT22;62581;47.342;7.908;2023-12-20T01:36:04;3.30;99.90
48836;DHT22;62581;47.342;7.908;2023-12-20T01:38:31;3.30;99.90
48836;DHT22;62581;47.342;7.908;2023-12-20T01:41:00;3.30;99.90
48836;DHT22;62581;47.342;7.908;2023-12-20T01:43:27;3.30;99.90
48836;DHT22;62581;47.342;7.908;2023-12-20T01:45:55;3.40;99.90
48836;DHT22;62581;47.342;7.908;2023-12-20T01:48:23;3.30;99.90
48836;DHT22;62581;47.342;7.908;2023-12-20T01:50:50;3.40;99.90
48836;DHT22;62581;47.342;7.908;2023-12-20T01:53:19;3.40;99.90
48836;DHT22;62581;47.342;7.908;2023-12-20T01:55:50;3.40;99.90
48836;DHT22;62581;47.342;7.908;2023-12-20T01:58:19;3.40;99.90
48836;DHT22;62581;47.342;7.908;2023-12-20T02:00:46;3.40;99.90
48836;DHT22;62581;47.342;7.908;2023-12-20T02:03:14;3.30;99.90
48836;DHT22;62581;47.342;7.908;2023-12-20T02:05:41;3.40;99.90
48836;DHT22;62581;47.342;7.908;2023-12-20T02:08:08;3.50;99.90
48836;DHT22;62581;47.342;7.908;2023-12-20T02:10:35;3.50;99.90
48836;DHT22;62581;47.342;7.908;2023-12-20T02:13:02;3.50;99.90
48836;DHT22;62581;47.342;7.908;2023-12-20T02:15:31;3.50;99.90
48836;DHT22;62581;47.342;7.908;2023-12-20T02:18:00;3.60;99.90
48836;DHT22;62581;47.342;7.908;2023-12-20T02:20:27;3.60;99.90
48836;DHT22;62581;47.342;7.908;2023-12-20T02:22:55;3.50;99.90
48836;DHT22;62581;47.342;7.908;2023-12-20T02:25:22;3.50;99.90
48836;DHT22;62581;47.342;7.908;2023-12-20T02:27:49;3.50;99.90
48836;DHT22;62581;47.342;7.908;2023-12-20T02:30:17;3.50;99.90
48836;DHT22;62581;47.342;7.908;2023-12-20T02:32:44;3.60;99.90
48836;DHT22;62581;47.342;7.908;2023-12-20T02:35:11;3.60;99.90
48836;DHT22;62581;47.342;7.908;2023-12-20T02:37:38;3.60;99.90
48836;DHT22;62581;47.342;7.908;2023-12-20T02:40:07;3.70;99.90
48836;DHT22;62581;47.342;7.908;2023-12-20T02:42:34;3.70;99.90
48836;DHT22;62581;47.342;7.908;2023-12-20T02:45:01;3.70;99.90
48836;DHT22;62581;47.342;7.908;2023-12-20T02:47:28;3.70;99.90
48836;DHT22;62581;47.342;7.908;2023-12-20T02:49:56;3.70;99.90
48836;DHT22;62581;47.342;7.908;2023-12-20T02:52:23;3.70;99.90
48836;DHT22;62581;47.342;7.908;2023-12-20T02:54:50;3.80;99.90
48836;DHT22;62581;47.342;7.908;2023-12-20T02:57:18;3.80;99.90
48836;DHT22;62581;47.342;7.908;2023-12-20T02:59:45;3.80;99.90
48836;DHT22;62581;47.342;7.908;2023-12-20T03:02:12;3.90;99.90
48836;DHT22;62581;47.342;7.908;2023-12-20T03:04:39;3.90;99.90
48836;DHT22;62581;47.342;7.908;2023-12-20T03:07:06;4.00;99.90
48836;DHT22;62581;47.342;7.908;2023-12-20T03:09:33;3.90;99.90
48836;DHT22;62581;47.342;7.908;2023-12-20T03:12:00;3.90;99.90
48836;DHT22;62581;47.342;7.908;2023-12-20T03:14:28;3.90;99.90
48836;DHT22;62581;47.342;7.908;2023-12-20T03:16:55;4.10;99.90
48836;DHT22;62581;47.342;7.908;2023-12-20T03:19:22;4.00;99.90
48836;DHT22;62581;47.342;7.908;2023-12-20T03:21:49;4.00;99.90
48836;DHT22;62581;47.342;7.908;2023-12-20T03:24:16;4.00;99.90
48836;DHT22;62581;47.342;7.908;2023-12-20T03:26:43;3.90;99.90
48836;DHT22;62581;47.342;7.908;2023-12-20T03:29:10;3.90;99.90
48836;DHT22;62581;47.342;7.908;2023-12-20T03:31:38;4.00;99.90
48836;DHT22;62581;47.342;7.908;2023-12-20T03:34:05;4.00;99.90
48836;DHT22;62581;47.342;7.908;2023-12-20T03:36:32;4.00;99.90
48836;DHT22;62581;47.342;7.908;2023-12-20T03:38:59;4.10;99.90
48836;DHT22;62581;47.342;7.908;2023-12-20T03:41:26;4.10;99.90
48836;DHT22;62581;47.342;7.908;2023-12-20T03:43:53;4.10;99.90
48836;DHT22;62581;47.342;7.908;2023-12-20T03:46:20;4.20;99.90
48836;DHT22;62581;47.342;7.908;2023-12-20T03:48:48;4.30;99.90
48836;DHT22;62581;47.342;7.908;2023-12-20T03:51:15;4.30;99.90
48836;DHT22;62581;47.342;7.908;2023-12-20T03:53:42;4.40;99.90
48836;DHT22;62581;47.342;7.908;2023-12-20T03:56:09;4.30;99.90
48836;DHT22;62581;47.342;7.908;2023-12-20T03:58:35;4.30;99.90
48836;DHT22;62581;47.342;7.908;2023-12-20T04:01:03;4.30;99.90
48836;DHT22;62581;47.342;7.908;2023-12-20T04:03:30;4.40;99.90
48836;DHT22;62581;47.342;7.908;2023-12-20T04:05:58;4.30;99.90
48836;DHT22;62581;47.342;7.908;2023-12-20T04:08:25;4.40;99.90
48836;DHT22;62581;47.342;7.908;2023-12-20T04:10:52;4.40;99.90
48836;DHT22;62581;47.342;7.908;2023-12-20T04:13:18;4.40;99.90
48836;DHT22;62581;47.342;7.908;2023-12-20T04:15:45;4.40;99.90
48836;DHT22;62581;47.342;7.908;2023-12-20T04:18:12;4.40;99.90
48836;DHT22;62581;47.342;7.908;2023-12-20T04:20:39;4.40;99.90
48836;DHT22;62581;47.342;7.908;2023-12-20T04:23:07;4.40;99.90
48836;DHT22;62581;47.342;7.908;2023-12-20T04:25:34;4.40;99.90
48836;DHT22;62581;47.342;7.908;2023-12-20T04:28:01;4.50;99.90
48836;DHT22;62581;47.342;7.908;2023-12-20T04:30:28;4.50;99.90
48836;DHT22;62581;47.342;7.908;2023-12-20T04:32:55;4.50;99.90
48836;DHT22;62581;47.342;7.908;2023-12-20T04:35:22;4.50;99.90
48836;DHT22;62581;47.342;7.908;2023-12-20T04:37:49;4.50;99.90
48836;DHT22;62581;47.342;7.908;2023-12-20T04:40:18;4.50;99.90
48836;DHT22;62581;47.342;7.908;2023-12-20T04:42:45;4.50;99.90
48836;DHT22;62581;47.342;7.908;2023-12-20T04:45:12;4.60;99.90
48836;DHT22;62581;47.342;7.908;2023-12-20T04:47:41;4.50;99.90
48836;DHT22;62581;47.342;7.908;2023-12-20T04:50:09;4.70;99.90
48836;DHT22;62581;47.342;7.908;2023-12-20T04:52:38;4.60;99.90
48836;DHT22;62581;47.342;7.908;2023-12-20T04:55:06;4.60;99.90
48836;DHT22;62581;47.342;7.908;2023-12-20T04:57:35;4.70;99.90
48836;DHT22;62581;47.342;7.908;2023-12-20T05:00:03;4.70;99.90
48836;DHT22;62581;47.342;7.908;2023-12-20T05:02:30;4.70;99.90
48836;DHT22;62581;47.342;7.908;2023-12-20T05:04:57;4.60;99.90
48836;DHT22;62581;47.342;7.908;2023-12-20T05:07:24;4.60;99.90
48836;DHT22;62581;47.342;7.908;2023-12-20T05:09:51;4.70;99.90
48836;DHT22;62581;47.342;7.908;2023-12-20T05:12:19;4.60;99.90
48836;DHT22;62581;47.342;7.908;2023-12-20T05:14:47;4.70;99.90
48836;DHT22;62581;47.342;7.908;2023-12-20T05:17:14;4.70;99.90
48836;DHT22;62581;47.342;7.908;2023-12-20T05:19:41;4.70;99.90
48836;DHT22;62581;47.342;7.908;2023-12-20T05:22:08;4.70;99.90
48836;DHT22;62581;47.342;7.908;2023-12-20T05:24:35;4.70;99.90
48836;DHT22;62581;47.342;7.908;2023-12-20T05:27:02;4.70;99.90
48836;DHT22;62581;47.342;7.908;2023-12-20T05:29:29;4.70;99.90
48836;DHT22;62581;47.342;7.908;2023-12-20T05:31:58;4.70;99.90
48836;DHT22;62581;47.342;7.908;2023-12-20T05:34:25;4.80;99.90
48836;DHT22;62581;47.342;7.908;2023-12-20T05:36:52;4.70;99.90
48836;DHT22;62581;47.342;7.908;2023-12-20T05:39:19;4.80;99.90
48836;DHT22;62581;47.342;7.908;2023-12-20T05:41:46;4.80;99.90
48836;DHT22;62581;47.342;7.908;2023-12-20T05:44:13;4.90;99.90
48836;DHT22;62581;47.342;7.908;2023-12-20T05:46:40;4.90;99.90
48836;DHT22;62581;47.342;7.908;2023-12-20T05:49:08;4.90;99.90
48836;DHT22;62581;47.342;7.908;2023-12-20T05:51:36;4.90;99.90
48836;DHT22;62581;47.342;7.908;2023-12-20T05:54:03;4.80;99.90
48836;DHT22;62581;47.342;7.908;2023-12-20T05:56:30;4.80;99.90
48836;DHT22;62581;47.342;7.908;2023-12-20T05:58:57;4.80;99.90
48836;DHT22;62581;47.342;7.908;2023-12-20T06:01:24;4.80;99.90
48836;DHT22;62581;47.342;7.908;2023-12-20T06:03:51;4.80;99.90
48836;DHT22;62581;47.342;7.908;2023-12-20T06:06:19;4.60;99.90
48836;DHT22;62581;47.342;7.908;2023-12-20T06:08:46;4.70;99.90
48836;DHT22;62581;47.342;7.908;2023-12-20T06:11:13;4.70;99.90
48836;DHT22;62581;47.342;7.908;2023-12-20T06:13:40;4.70;99.90
48836;DHT22;62581;47.342;7.908;2023-12-20T06:16:07;4.80;99.90
48836;DHT22;62581;47.342;7.908;2023-12-20T06:18:34;4.80;99.90
48836;DHT22;62581;47.342;7.908;2023-12-20T06:21:03;4.90;99.90
48836;DHT22;62581;47.342;7.908;2023-12-20T06:23:34;4.90;99.90
48836;DHT22;62581;47.342;7.908;2023-12-20T06:26:01;4.90;99.90
48836;DHT22;62581;47.342;7.908;2023-12-20T06:28:27;5.00;99.90
48836;DHT22;62581;47.342;7.908;2023-12-20T06:30:54;5.00;99.90
48836;DHT22;62581;47.342;7.908;2023-12-20T06:33:22;5.00;99.90
48836;DHT22;62581;47.342;7.908;2023-12-20T06:35:49;5.00;99.90
48836;DHT22;62581;47.342;7.908;2023-12-20T06:38:18;5.00;99.90
48836;DHT22;62581;47.342;7.908;2023-12-20T06:40:46;5.10;99.90
48836;DHT22;62581;47.342;7.908;2023-12-20T06:43:13;5.10;99.90
48836;DHT22;62581;47.342;7.908;2023-12-20T06:45:40;5.10;99.90
48836;DHT22;62581;47.342;7.908;2023-12-20T06:48:07;5.20;99.90
48836;DHT22;62581;47.342;7.908;2023-12-20T06:50:36;5.20;99.90
48836;DHT22;62581;47.342;7.908;2023-12-20T06:53:05;5.20;99.90
48836;DHT22;62581;47.342;7.908;2023-12-20T06:55:33;5.20;99.90
48836;DHT22;62581;47.342;7.908;2023-12-20T06:58:02;5.20;99.90
48836;DHT22;62581;47.342;7.908;2023-12-20T07:00:29;5.20;99.90
48836;DHT22;62581;47.342;7.908;2023-12-20T07:02:56;5.20;99.90
48836;DHT22;62581;47.342;7.908;2023-12-20T07:05:24;5.10;99.90
48836;DHT22;62581;47.342;7.908;2023-12-20T07:07:52;5.10;99.90
48836;DHT22;62581;47.342;7.908;2023-12-20T07:10:19;5.10;99.90
48836;DHT22;62581;47.342;7.908;2023-12-20T07:12:46;5.10;99.90
48836;DHT22;62581;47.342;7.908;2023-12-20T07:15:15;5.10;99.90
48836;DHT22;62581;47.342;7.908;2023-12-20T07:17:42;5.10;99.90
48836;DHT22;62581;47.342;7.908;2023-12-20T07:20:10;5.10;99.90
48836;DHT22;62581;47.342;7.908;2023-12-20T07:22:37;5.10;99.90
48836;DHT22;62581;47.342;7.908;2023-12-20T07:25:05;5.10;99.90
48836;DHT22;62581;47.342;7.908;2023-12-20T07:27:32;5.10;99.90
48836;DHT22;62581;47.342;7.908;2023-12-20T07:29:59;5.20;99.90
48836;DHT22;62581;47.342;7.908;2023-12-20T07:32:27;5.20;99.90
48836;DHT22;62581;47.342;7.908;2023-12-20T07:34:55;5.30;99.90
48836;DHT22;62581;47.342;7.908;2023-12-20T07:37:22;5.30;99.90
48836;DHT22;62581;47.342;7.908;2023-12-20T07:39:48;5.40;99.90
48836;DHT22;62581;47.342;7.908;2023-12-20T07:42:15;5.40;99.90
48836;DHT22;62581;47.342;7.908;2023-12-20T07:44:42;5.40;99.90
48836;DHT22;62581;47.342;7.908;2023-12-20T07:47:09;5.40;99.90
48836;DHT22;62581;47.342;7.908;2023-12-20T07:49:39;5.40;99.90
48836;DHT22;62581;47.342;7.908;2023-12-20T07:52:06;5.40;99.90
48836;DHT22;62581;47.342;7.908;2023-12-20T07:54:33;5.40;99.90
48836;DHT22;62581;47.342;7.908;2023-12-20T07:57:00;5.40;99.90
48836;DHT22;62581;47.342;7.908;2023-12-20T07:59:27;5.40;99.90
48836;DHT22;62581;47.342;7.908;2023-12-20T08:01:54;5.40;99.90
48836;DHT22;62581;47.342;7.908;2023-12-20T08:04:21;5.50;99.90
48836;DHT22;62581;47.342;7.908;2023-12-20T08:06:50;5.60;99.90
48836;DHT22;62581;47.342;7.908;2023-12-20T08:09:17;5.60;99.90
48836;DHT22;62581;47.342;7.908;2023-12-20T08:11:45;5.60;99.90
48836;DHT22;62581;47.342;7.908;2023-12-20T08:14:12;5.70;99.90
48836;DHT22;62581;47.342;7.908;2023-12-20T08:16:39;5.60;99.90
48836;DHT22;62581;47.342;7.908;2023-12-20T08:19:06;5.60;99.90
48836;DHT22;62581;47.342;7.908;2023-12-20T08:21:33;5.60;99.90
48836;DHT22;62581;47.342;7.908;2023-12-20T08:24:01;5.70;99.90
48836;DHT22;62581;47.342;7.908;2023-12-20T08:26:28;5.80;99.90
48836;DHT22;62581;47.342;7.908;2023-12-20T08:28:55;5.90;99.90
48836;DHT22;62581;47.342;7.908;2023-12-20T08:31:22;5.90;99.90
48836;DHT22;62581;47.342;7.908;2023-12-20T08:33:49;6.00;99.90
48836;DHT22;62581;47.342;7.908;2023-12-20T08:36:19;6.00;99.90
48836;DHT22;62581;47.342;7.908;2023-12-20T08:38:46;6.10;99.90
48836;DHT22;62581;47.342;7.908;2023-12-20T08:41:15;6.10;99.90
48836;DHT22;62581;47.342;7.908;2023-12-20T08:43:42;6.10;99.90
48836;DHT22;62581;47.342;7.908;2023-12-20T08:46:09;6.10;99.90
48836;DHT22;62581;47.342;7.908;2023-12-20T08:48:37;6.20;99.90
48836;DHT22;62581;47.342;7.908;2023-12-20T08:51:04;6.20;99.90
48836;DHT22;62581;47.342;7.908;2023-12-20T08:53:32;6.20;99.90
48836;DHT22;62581;47.342;7.908;2023-12-20T08:56:00;6.20;99.90
48836;DHT22;62581;47.342;7.908;2023-12-20T08:58:29;6.20;99.90
48836;DHT22;62581;47.342;7.908;2023-12-20T09:00:55;6.30;99.90
48836;DHT22;62581;47.342;7.908;2023-12-20T09:03:23;6.40;99.90
48836;DHT22;62581;47.342;7.908;2023-12-20T09:05:50;6.40;99.90
48836;DHT22;62581;47.342;7.908;2023-12-20T09:08:17;6.50;99.90
48836;DHT22;62581;47.342;7.908;2023-12-20T09:10:44;6.60;99.90
48836;DHT22;62581;47.342;7.908;2023-12-20T09:13:11;6.70;99.90
48836;DHT22;62581;47.342;7.908;2023-12-20T09:15:39;6.70;99.90
48836;DHT22;62581;47.342;7.908;2023-12-20T09:18:06;6.70;99.90
48836;DHT22;62581;47.342;7.908;2023-12-20T09:20:34;6.80;99.90
48836;DHT22;62581;47.342;7.908;2023-12-20T09:23:01;6.80;99.90
48836;DHT22;62581;47.342;7.908;2023-12-20T09:25:28;6.80;99.90
48836;DHT22;62581;47.342;7.908;2023-12-20T09:27:55;6.90;99.90
48836;DHT22;62581;47.342;7.908;2023-12-20T09:30:22;7.00;99.90
48836;DHT22;62581;47.342;7.908;2023-12-20T09:32:50;7.10;99.90
48836;DHT22;62581;47.342;7.908;2023-12-20T09:35:17;7.20;99.90
48836;DHT22;62581;47.342;7.908;2023-12-20T09:37:44;7.20;99.90
48836;DHT22;62581;47.342;7.908;2023-12-20T09:40:13;7.20;99.90
48836;DHT22;62581;47.342;7.908;2023-12-20T09:42:47;7.10;99.90
48836;DHT22;62581;47.342;7.908;2023-12-20T09:45:15;7.20;99.90
48836;DHT22;62581;47.342;7.908;2023-12-20T09:47:43;7.20;99.90
48836;DHT22;62581;47.342;7.908;2023-12-20T09:50:12;7.20;99.90
48836;DHT22;62581;47.342;7.908;2023-12-20T09:52:40;7.30;99.90
48836;DHT22;62581;47.342;7.908;2023-12-20T09:55:08;7.40;99.90
48836;DHT22;62581;47.342;7.908;2023-12-20T09:57:35;7.50;99.90
48836;DHT22;62581;47.342;7.908;2023-12-20T10:00:03;7.50;99.90
48836;DHT22;62581;47.342;7.908;2023-12-20T10:02:31;7.50;99.90
48836;DHT22;62581;47.342;7.908;2023-12-20T10:04:58;7.50;99.90
48836;DHT22;62581;47.342;7.908;2023-12-20T10:07:27;7.40;99.90
48836;DHT22;62581;47.342;7.908;2023-12-20T10:09:54;7.40;99.90
48836;DHT22;62581;47.342;7.908;2023-12-20T10:12:22;7.30;99.90
48836;DHT22;62581;47.342;7.908;2023-12-20T10:14:49;7.30;99.90
48836;DHT22;62581;47.342;7.908;2023-12-20T10:17:17;7.40;99.90
48836;DHT22;62581;47.342;7.908;2023-12-20T10:19:44;7.50;99.90
48836;DHT22;62581;47.342;7.908;2023-12-20T10:22:11;7.60;99.90
48836;DHT22;62581;47.342;7.908;2023-12-20T10:24:40;7.60;99.90
48836;DHT22;62581;47.342;7.908;2023-12-20T10:27:08;7.60;99.90
48836;DHT22;62581;47.342;7.908;2023-12-20T10:29:35;7.60;99.90
48836;DHT22;62581;47.342;7.908;2023-12-20T10:32:23;7.50;99.90
48836;DHT22;62581;47.342;7.908;2023-12-20T10:34:51;7.50;99.90
48836;DHT22;62581;47.342;7.908;2023-12-20T10:37:18;7.40;99.90
48836;DHT22;62581;47.342;7.908;2023-12-20T10:39:49;7.40;99.90
48836;DHT22;62581;47.342;7.908;2023-12-20T10:42:17;7.40;99.90
48836;DHT22;62581;47.342;7.908;2023-12-20T10:44:44;7.50;99.90
48836;DHT22;62581;47.342;7.908;2023-12-20T10:47:13;7.40;99.90
48836;DHT22;62581;47.342;7.908;2023-12-20T10:49:40;7.40;99.90
48836;DHT22;62581;47.342;7.908;2023-12-20T10:52:09;7.40;99.90
48836;DHT22;62581;47.342;7.908;2023-12-20T10:54:38;7.40;99.90
48836;DHT22;62581;47.342;7.908;2023-12-20T10:57:07;7.40;99.90
48836;DHT22;62581;47.342;7.908;2023-12-20T10:59:36;7.50;99.90
48836;DHT22;62581;47.342;7.908;2023-12-20T11:02:04;7.60;99.90
48836;DHT22;62581;47.342;7.908;2023-12-20T11:04:37;7.70;99.90
48836;DHT22;62581;47.342;7.908;2023-12-20T11:07:13;7.90;99.90
48836;DHT22;62581;47.342;7.908;2023-12-20T11:09:47;8.00;99.90
48836;DHT22;62581;47.342;7.908;2023-12-20T11:12:24;8.10;99.90
48836;DHT22;62581;47.342;7.908;2023-12-20T11:14:54;8.20;99.90
48836;DHT22;62581;47.342;7.908;2023-12-20T11:17:23;8.20;99.90
48836;DHT22;62581;47.342;7.908;2023-12-20T11:20:07;8.40;99.90
48836;DHT22;62581;47.342;7.908;2023-12-20T11:22:36;8.50;99.90
48836;DHT22;62581;47.342;7.908;2023-12-20T11:25:05;8.60;99.90
48836;DHT22;62581;47.342;7.908;2023-12-20T11:27:35;8.70;99.90
48836;DHT22;62581;47.342;7.908;2023-12-20T11:30:03;8.80;99.90
48836;DHT22;62581;47.342;7.908;2023-12-20T11:32:34;8.70;99.90
48836;DHT22;62581;47.342;7.908;2023-12-20T11:35:16;8.50;99.90
48836;DHT22;62581;47.342;7.908;2023-12-20T11:37:43;8.40;99.90
48836;DHT22;62581;47.342;7.908;2023-12-20T11:40:14;8.20;99.90
48836;DHT22;62581;47.342;7.908;2023-12-20T11:42:44;8.10;99.90
48836;DHT22;62581;47.342;7.908;2023-12-20T11:45:13;8.10;99.90
48836;DHT22;62581;47.342;7.908;2023-12-20T11:47:43;8.30;99.90
48836;DHT22;62581;47.342;7.908;2023-12-20T11:50:11;8.40;99.90
48836;DHT22;62581;47.342;7.908;2023-12-20T11:52:38;8.90;99.90
48836;DHT22;62581;47.342;7.908;2023-12-20T11:55:06;9.00;99.90
48836;DHT22;62581;47.342;7.908;2023-12-20T11:57:33;9.10;99.90
48836;DHT22;62581;47.342;7.908;2023-12-20T12:00:02;9.10;99.90
48836;DHT22;62581;47.342;7.908;2023-12-20T12:02:30;9.10;99.90
48836;DHT22;62581;47.342;7.908;2023-12-20T12:04:57;8.80;99.90
48836;DHT22;62581;47.342;7.908;2023-12-20T12:07:24;8.60;99.90
48836;DHT22;62581;47.342;7.908;2023-12-20T12:09:52;8.40;99.90
48836;DHT22;62581;47.342;7.908;2023-12-20T12:12:19;8.30;99.90
48836;DHT22;62581;47.342;7.908;2023-12-20T12:14:46;8.30;99.90
48836;DHT22;62581;47.342;7.908;2023-12-20T12:17:15;8.20;99.90
48836;DHT22;62581;47.342;7.908;2023-12-20T12:19:42;8.10;99.90
48836;DHT22;62581;47.342;7.908;2023-12-20T12:22:10;7.90;99.90
48836;DHT22;62581;47.342;7.908;2023-12-20T12:24:39;7.90;99.90
48836;DHT22;62581;47.342;7.908;2023-12-20T12:27:06;8.00;99.90
48836;DHT22;62581;47.342;7.908;2023-12-20T12:29:33;7.80;99.90
48836;DHT22;62581;47.342;7.908;2023-12-20T12:32:01;7.90;99.90
48836;DHT22;62581;47.342;7.908;2023-12-20T12:34:32;8.00;99.90
48836;DHT22;62581;47.342;7.908;2023-12-20T12:36:59;8.10;99.90
48836;DHT22;62581;47.342;7.908;2023-12-20T12:39:26;8.00;99.90
48836;DHT22;62581;47.342;7.908;2023-12-20T12:41:55;8.00;99.90
48836;DHT22;62581;47.342;7.908;2023-12-20T12:44:22;8.10;99.90
48836;DHT22;62581;47.342;7.908;2023-12-20T12:46:50;8.10;99.90
48836;DHT22;62581;47.342;7.908;2023-12-20T12:49:19;8.40;99.90
48836;DHT22;62581;47.342;7.908;2023-12-20T12:51:48;9.50;99.90
48836;DHT22;62581;47.342;7.908;2023-12-20T12:54:15;11.00;99.90
48836;DHT22;62581;47.342;7.908;2023-12-20T12:56:43;11.70;99.90
48836;DHT22;62581;47.342;7.908;2023-12-20T12:59:12;12.50;99.90
48836;DHT22;62581;47.342;7.908;2023-12-20T13:01:39;13.40;99.90
48836;DHT22;62581;47.342;7.908;2023-12-20T13:04:06;14.00;99.90
48836;DHT22;62581;47.342;7.908;2023-12-20T13:06:36;13.80;99.90
48836;DHT22;62581;47.342;7.908;2023-12-20T13:09:05;13.80;99.90
48836;DHT22;62581;47.342;7.908;2023-12-20T13:11:32;13.70;99.90
48836;DHT22;62581;47.342;7.908;2023-12-20T13:13:59;13.50;99.90
48836;DHT22;62581;47.342;7.908;2023-12-20T13:16:26;13.70;99.90
48836;DHT22;62581;47.342;7.908;2023-12-20T13:18:53;13.40;99.90
48836;DHT22;62581;47.342;7.908;2023-12-20T13:21:19;12.50;99.90
48836;DHT22;62581;47.342;7.908;2023-12-20T13:23:46;11.90;99.90
48836;DHT22;62581;47.342;7.908;2023-12-20T13:26:15;11.60;99.90
48836;DHT22;62581;47.342;7.908;2023-12-20T13:28:42;11.70;99.90
48836;DHT22;62581;47.342;7.908;2023-12-20T13:31:09;11.40;99.90
48836;DHT22;62581;47.342;7.908;2023-12-20T13:33:36;11.70;99.90
48836;DHT22;62581;47.342;7.908;2023-12-20T13:36:04;12.20;99.90
48836;DHT22;62581;47.342;7.908;2023-12-20T13:38:31;12.10;99.90
48836;DHT22;62581;47.342;7.908;2023-12-20T13:40:58;12.20;99.90
48836;DHT22;62581;47.342;7.908;2023-12-20T13:43:26;12.30;99.90
48836;DHT22;62581;47.342;7.908;2023-12-20T13:45:53;11.60;99.90
48836;DHT22;62581;47.342;7.908;2023-12-20T13:48:20;10.90;99.90
48836;DHT22;62581;47.342;7.908;2023-12-20T13:50:47;10.90;99.90
48836;DHT22;62581;47.342;7.908;2023-12-20T13:53:14;11.10;99.90
48836;DHT22;62581;47.342;7.908;2023-12-20T13:55:41;10.90;99.90
48836;DHT22;62581;47.342;7.908;2023-12-20T13:58:08;10.80;99.90
48836;DHT22;62581;47.342;7.908;2023-12-20T14:00:37;10.60;99.90
48836;DHT22;62581;47.342;7.908;2023-12-20T14:03:05;10.90;99.90
48836;DHT22;62581;47.342;7.908;2023-12-20T14:05:32;11.20;99.90
48836;DHT22;62581;47.342;7.908;2023-12-20T14:07:59;11.10;99.90
48836;DHT22;62581;47.342;7.908;2023-12-20T14:10:26;10.60;99.90
48836;DHT22;62581;47.342;7.908;2023-12-20T14:12:53;10.00;99.90
48836;DHT22;62581;47.342;7.908;2023-12-20T14:15:21;9.60;99.90
48836;DHT22;62581;47.342;7.908;2023-12-20T14:17:52;9.40;99.90
48836;DHT22;62581;47.342;7.908;2023-12-20T14:20:20;8.80;99.90
48836;DHT22;62581;47.342;7.908;2023-12-20T14:22:47;8.60;99.90
48836;DHT22;62581;47.342;7.908;2023-12-20T14:25:14;8.80;99.90
48836;DHT22;62581;47.342;7.908;2023-12-20T14:27:41;9.20;99.90
48836;DHT22;62581;47.342;7.908;2023-12-20T14:30:10;9.30;99.90
48836;DHT22;62581;47.342;7.908;2023-12-20T14:32:39;9.10;99.90
48836;DHT22;62581;47.342;7.908;2023-12-20T14:35:08;8.80;99.90
48836;DHT22;62581;47.342;7.908;2023-12-20T14:37:35;8.40;99.90
48836;DHT22;62581;47.342;7.908;2023-12-20T14:40:05;7.90;99.90
48836;DHT22;62581;47.342;7.908;2023-12-20T14:42:35;7.60;99.90
48836;DHT22;62581;47.342;7.908;2023-12-20T14:45:03;7.50;99.90
48836;DHT22;62581;47.342;7.908;2023-12-20T14:47:30;7.50;99.90
48836;DHT22;62581;47.342;7.908;2023-12-20T14:49:57;7.40;99.90
48836;DHT22;62581;47.342;7.908;2023-12-20T14:52:25;7.40;99.90
48836;DHT22;62581;47.342;7.908;2023-12-20T14:54:52;7.20;99.90
48836;DHT22;62581;47.342;7.908;2023-12-20T14:57:19;7.10;99.90
48836;DHT22;62581;47.342;7.908;2023-12-20T14:59:46;7.10;99.90
48836;DHT22;62581;47.342;7.908;2023-12-20T15:02:13;7.00;99.90
48836;DHT22;62581;47.342;7.908;2023-12-20T15:04:41;7.00;99.90
48836;DHT22;62581;47.342;7.908;2023-12-20T15:07:07;6.90;99.90
48836;DHT22;62581;47.342;7.908;2023-12-20T15:09:36;7.00;99.90
48836;DHT22;62581;47.342;7.908;2023-12-20T15:12:04;6.90;99.90
48836;DHT22;62581;47.342;7.908;2023-12-20T15:14:31;6.80;99.90
48836;DHT22;62581;47.342;7.908;2023-12-20T15:16:58;6.70;99.90
48836;DHT22;62581;47.342;7.908;2023-12-20T15:19:25;6.70;99.90
48836;DHT22;62581;47.342;7.908;2023-12-20T15:21:52;6.70;99.90
48836;DHT22;62581;47.342;7.908;2023-12-20T15:24:19;6.60;99.90
48836;DHT22;62581;47.342;7.908;2023-12-20T15:26:54;6.50;99.90
48836;DHT22;62581;47.342;7.908;2023-12-20T15:29:21;6.40;99.90
48836;DHT22;62581;47.342;7.908;2023-12-20T15:31:48;6.40;99.90
48836;DHT22;62581;47.342;7.908;2023-12-20T15:34:15;6.30;99.90
48836;DHT22;62581;47.342;7.908;2023-12-20T15:36:42;6.20;99.90
48836;DHT22;62581;47.342;7.908;2023-12-20T15:39:09;6.20;99.90
48836;DHT22;62581;47.342;7.908;2023-12-20T15:41:40;6.20;99.90
48836;DHT22;62581;47.342;7.908;2023-12-20T15:44:08;6.10;99.90
48836;DHT22;62581;47.342;7.908;2023-12-20T15:46:35;6.10;99.90